createdAt,value
2022-12-24T00:02:49.416Z,4.93
2022-12-24T00:05:52.646Z,4.93
2022-12-24T00:08:55.432Z,4.93
2022-12-24T00:11:58.367Z,4.94
2022-12-24T00:15:01.222Z,4.99
2022-12-24T00:18:04.117Z,5.03
2022-12-24T00:21:07.339Z,5.05
2022-12-24T00:24:10.631Z,5.07
2022-12-24T00:27:13.423Z,5.07
2022-12-24T00:30:16.435Z,5.06
2022-12-24T00:33:24.234Z,5.04
2022-12-24T00:36:27.642Z,5.07
2022-12-24T00:39:31.204Z,5.13
2022-12-24T00:42:34.043Z,5.22
2022-12-24T00:45:36.817Z,5.27
2022-12-24T00:48:39.537Z,5.32
2022-12-24T00:51:42.442Z,5.38
2022-12-24T00:54:45.205Z,5.44
2022-12-24T00:57:47.954Z,5.49
2022-12-24T01:00:51.032Z,5.52
2022-12-24T01:04:14.612Z,5.53
2022-12-24T01:07:17.455Z,5.54
2022-12-24T01:10:20.823Z,5.52
2022-12-24T01:13:24.100Z,5.52
2022-12-24T01:16:27.153Z,5.53
2022-12-24T01:19:30.243Z,5.53
2022-12-24T01:22:33.042Z,5.53
2022-12-24T01:25:38.627Z,5.53
2022-12-24T01:28:42.250Z,5.52
2022-12-24T01:31:45.151Z,5.53
2022-12-24T01:34:50.181Z,5.57
2022-12-24T01:37:53.018Z,5.62
2022-12-24T01:41:14.708Z,5.64
2022-12-24T01:44:20.610Z,5.70
2022-12-24T01:47:30.447Z,5.78
2022-12-24T01:50:33.287Z,5.85
2022-12-24T01:53:38.658Z,5.89
2022-12-24T01:56:49.144Z,5.88
2022-12-24T01:59:57.962Z,5.87
2022-12-24T02:03:01.011Z,5.91
2022-12-24T02:06:04.928Z,5.97
2022-12-24T02:09:07.815Z,6.00
2022-12-24T02:12:10.761Z,6.04
2022-12-24T02:15:15.566Z,6.12
2022-12-24T02:18:34.079Z,6.21
2022-12-24T02:21:53.627Z,6.26
2022-12-24T02:25:16.759Z,6.32
2022-12-24T02:28:40.745Z,6.35
2022-12-24T02:32:12.370Z,6.35
2022-12-24T02:35:35.624Z,6.36
2022-12-24T02:38:51.977Z,6.35
2022-12-24T02:42:07.327Z,6.37
2022-12-24T02:45:31.698Z,6.40
2022-12-24T02:48:36.413Z,6.48
2022-12-24T02:51:39.233Z,6.50
2022-12-24T02:54:42.310Z,6.54
2022-12-24T02:58:18.743Z,6.57
2022-12-24T03:02:19.788Z,6.58
2022-12-24T03:05:55.286Z,6.66
2022-12-24T03:09:19.864Z,6.70
2022-12-24T03:12:43.040Z,6.71
2022-12-24T03:15:47.153Z,6.73
2022-12-24T03:18:53.377Z,6.69
2022-12-24T03:21:58.121Z,6.66
2022-12-24T03:25:01.563Z,6.66
2022-12-24T03:28:07.380Z,6.67
2022-12-24T03:31:11.725Z,6.70
2022-12-24T03:34:16.151Z,6.73
2022-12-24T03:37:18.939Z,6.76
2022-12-24T03:40:21.788Z,6.80
2022-12-24T03:43:24.678Z,6.82
2022-12-24T03:46:28.251Z,6.83
2022-12-24T03:49:31.110Z,6.84
2022-12-24T03:52:33.984Z,6.82
2022-12-24T03:55:37.895Z,6.80
2022-12-24T03:58:40.771Z,6.77
2022-12-24T04:01:43.676Z,6.77
2022-12-24T04:04:46.593Z,6.78
2022-12-24T04:07:49.426Z,6.78
2022-12-24T04:10:52.305Z,6.79
2022-12-24T04:13:55.177Z,6.84
2022-12-24T04:16:58.081Z,6.84
2022-12-24T04:20:00.944Z,6.83
2022-12-24T04:23:03.826Z,6.81
2022-12-24T04:26:08.866Z,6.81
2022-12-24T04:29:11.782Z,6.78
2022-12-24T04:32:14.915Z,6.77
2022-12-24T04:35:17.750Z,6.79
2022-12-24T04:38:20.519Z,6.83
2022-12-24T04:41:25.139Z,6.88
2022-12-24T04:44:28.083Z,6.91
2022-12-24T04:47:30.972Z,6.92
2022-12-24T04:50:33.840Z,6.93
2022-12-24T04:53:38.095Z,6.96
2022-12-24T04:56:40.950Z,6.99
2022-12-24T04:59:43.800Z,7.02
2022-12-24T05:02:46.679Z,7.02
2022-12-24T05:05:49.632Z,7.03
2022-12-24T05:08:55.952Z,7.05
2022-12-24T05:11:58.855Z,7.09
2022-12-24T05:15:01.678Z,7.07
2022-12-24T05:18:04.640Z,7.07
2022-12-24T05:21:14.583Z,7.11
2022-12-24T05:24:36.510Z,7.18
2022-12-24T05:27:39.573Z,7.22
2022-12-24T05:30:42.371Z,7.20
2022-12-24T05:33:45.889Z,7.21
2022-12-24T05:36:48.676Z,7.22
2022-12-24T05:39:51.526Z,7.23
2022-12-24T05:42:54.376Z,7.21
2022-12-24T05:46:07.469Z,7.22
2022-12-24T05:49:10.481Z,7.22
2022-12-24T05:52:13.352Z,7.17
2022-12-24T05:55:16.220Z,7.07
2022-12-24T05:58:19.024Z,6.95
2022-12-24T06:01:23.292Z,6.87
2022-12-24T06:04:28.956Z,6.85
2022-12-24T06:07:32.202Z,6.88
2022-12-24T06:10:35.072Z,6.87
2022-12-24T06:13:38.448Z,6.90
2022-12-24T06:16:41.442Z,6.89
2022-12-24T06:19:44.676Z,6.85
2022-12-24T06:22:47.538Z,6.79
2022-12-24T06:25:51.418Z,6.77
2022-12-24T06:28:54.277Z,6.79
2022-12-24T06:31:57.204Z,6.82
2022-12-24T06:35:00.137Z,6.88
2022-12-24T06:38:03.002Z,6.93
2022-12-24T06:41:07.627Z,6.95
2022-12-24T06:44:10.595Z,7.02
2022-12-24T06:47:13.407Z,7.06
2022-12-24T06:50:16.362Z,7.09
2022-12-24T06:53:19.298Z,7.10
2022-12-24T06:56:22.252Z,7.13
2022-12-24T06:59:25.261Z,7.15
2022-12-24T07:02:36.361Z,7.16
2022-12-24T07:05:42.587Z,7.23
2022-12-24T07:08:59.518Z,7.26
2022-12-24T07:12:12.587Z,7.28
2022-12-24T07:15:17.028Z,7.30
2022-12-24T07:18:20.093Z,7.33
2022-12-24T07:21:23.171Z,7.35
2022-12-24T07:24:34.608Z,7.37
2022-12-24T07:27:38.691Z,7.37
2022-12-24T07:30:41.618Z,7.40
2022-12-24T07:33:44.634Z,7.41
2022-12-24T07:36:47.659Z,7.45
2022-12-24T07:39:50.544Z,7.50
2022-12-24T07:42:53.492Z,7.49
2022-12-24T07:45:59.535Z,7.53
2022-12-24T07:49:02.436Z,7.59
2022-12-24T07:52:08.826Z,7.61
2022-12-24T07:55:12.248Z,7.69
2022-12-24T07:58:15.302Z,7.77
2022-12-24T08:01:19.523Z,7.85
2022-12-24T08:04:24.180Z,7.90
2022-12-24T08:07:27.304Z,7.92
2022-12-24T08:10:30.208Z,8.01
2022-12-24T08:13:33.148Z,8.01
2022-12-24T08:16:36.340Z,8.01
2022-12-24T08:19:39.373Z,8.07
2022-12-24T08:22:42.272Z,8.09
2022-12-24T08:25:47.070Z,8.07
2022-12-24T08:28:49.961Z,8.10
2022-12-24T08:31:52.883Z,8.11
2022-12-24T08:34:55.847Z,8.13
2022-12-24T08:37:59.112Z,8.14
2022-12-24T08:41:02.033Z,8.17
2022-12-24T08:44:05.159Z,8.30
2022-12-24T08:47:08.275Z,8.38
2022-12-24T08:50:12.498Z,8.46
2022-12-24T08:53:15.521Z,8.51
2022-12-24T08:56:18.478Z,8.47
2022-12-24T08:59:24.134Z,8.45
2022-12-24T09:02:27.178Z,8.40
2022-12-24T09:05:30.244Z,8.36
2022-12-24T09:08:33.592Z,8.33
2022-12-24T09:11:36.481Z,8.24
2022-12-24T09:14:39.478Z,8.27
2022-12-24T09:17:42.562Z,8.42
2022-12-24T09:20:46.978Z,8.52
2022-12-24T09:23:50.229Z,8.59
2022-12-24T09:26:57.668Z,8.60
2022-12-24T09:30:01.103Z,8.50
2022-12-24T09:33:04.142Z,8.53
2022-12-24T09:36:07.693Z,8.62
2022-12-24T09:39:10.516Z,8.69
2022-12-24T09:42:44.423Z,8.69
2022-12-24T09:46:01.381Z,8.70
2022-12-24T09:49:18.453Z,8.75
2022-12-24T09:52:40.572Z,8.90
2022-12-24T09:55:48.693Z,9.04
2022-12-24T09:59:00.110Z,9.09
2022-12-24T10:02:03.121Z,9.12
2022-12-24T10:05:10.255Z,9.14
2022-12-24T10:08:38.069Z,9.12
2022-12-24T10:12:08.847Z,9.08
2022-12-24T10:15:35.098Z,9.16
2022-12-24T10:18:56.983Z,9.07
2022-12-24T10:22:08.857Z,8.96
2022-12-24T10:25:25.575Z,8.84
2022-12-24T10:28:35.327Z,8.71
2022-12-24T10:31:53.315Z,8.65
2022-12-24T10:35:19.465Z,8.60
2022-12-24T10:38:22.549Z,8.58
2022-12-24T10:41:29.890Z,8.67
2022-12-24T10:44:34.733Z,8.71
2022-12-24T10:47:41.102Z,8.73
2022-12-24T10:50:54.746Z,8.74
2022-12-24T10:54:07.194Z,8.76
2022-12-24T10:57:25.718Z,8.78
2022-12-24T11:00:35.486Z,8.82
2022-12-24T11:03:39.977Z,8.82
2022-12-24T11:06:56.425Z,8.82
2022-12-24T11:10:07.678Z,8.86
2022-12-24T11:13:41.519Z,9.04
2022-12-24T11:16:57.695Z,9.08
2022-12-24T11:20:03.525Z,9.05
2022-12-24T11:23:06.988Z,9.03
2022-12-24T11:26:10.204Z,8.98
2022-12-24T11:29:28.422Z,8.94
2022-12-24T11:32:31.313Z,8.95
2022-12-24T11:35:41.519Z,8.91
2022-12-24T11:38:53.352Z,8.86
2022-12-24T11:41:56.207Z,8.82
2022-12-24T11:45:02.187Z,8.82
2022-12-24T11:48:24.635Z,8.99
2022-12-24T11:51:27.858Z,9.08
2022-12-24T11:54:37.219Z,9.14
2022-12-24T11:57:52.181Z,9.06
2022-12-24T12:01:33.315Z,8.96
2022-12-24T12:04:39.200Z,8.90
2022-12-24T12:07:43.208Z,8.92
2022-12-24T12:10:48.498Z,8.97
2022-12-24T12:13:52.570Z,8.97
2022-12-24T12:17:23.433Z,8.85
2022-12-24T12:20:40.667Z,8.71
2022-12-24T12:23:59.016Z,8.65
2022-12-24T12:27:28.079Z,8.61
2022-12-24T12:30:32.149Z,8.59
2022-12-24T12:33:43.480Z,8.55
2022-12-24T12:37:18.241Z,8.47
2022-12-24T12:40:27.446Z,8.52
2022-12-24T12:43:55.437Z,8.46
2022-12-24T12:47:04.572Z,8.41
2022-12-24T12:50:11.420Z,8.41
2022-12-24T12:53:20.620Z,8.41
2022-12-24T12:56:35.757Z,8.44
2022-12-24T12:59:53.204Z,8.43
2022-12-24T13:03:15.886Z,8.43
2022-12-24T13:06:55.994Z,8.44
2022-12-24T13:10:04.774Z,8.41
2022-12-24T13:13:31.314Z,8.36
2022-12-24T13:17:05.304Z,8.25
2022-12-24T13:20:20.672Z,8.25
2022-12-24T13:23:26.571Z,8.22
2022-12-24T13:26:29.561Z,8.17
2022-12-24T13:29:36.930Z,8.15
2022-12-24T13:32:52.084Z,8.10
2022-12-24T13:36:04.513Z,8.10
2022-12-24T13:39:19.838Z,8.05
2022-12-24T13:42:49.796Z,7.99
2022-12-24T13:45:52.741Z,7.97
2022-12-24T13:48:55.667Z,7.94
2022-12-24T13:52:10.828Z,7.91
2022-12-24T13:55:16.457Z,7.89
2022-12-24T13:58:22.772Z,7.88
2022-12-24T14:01:38.629Z,7.91
2022-12-24T14:04:42.512Z,7.91
2022-12-24T14:07:50.437Z,7.93
2022-12-24T14:11:19.806Z,7.94
2022-12-24T14:14:31.629Z,7.92
2022-12-24T14:17:36.346Z,7.92
2022-12-24T14:20:39.322Z,7.90
2022-12-24T14:24:03.165Z,7.86
2022-12-24T14:27:33.740Z,7.82
2022-12-24T14:30:36.576Z,7.74
2022-12-24T14:33:39.435Z,7.73
2022-12-24T14:36:44.740Z,7.75
2022-12-24T14:39:49.427Z,7.72
2022-12-24T14:43:30.001Z,7.69
2022-12-24T14:47:01.823Z,7.61
2022-12-24T14:50:18.958Z,7.52
2022-12-24T14:53:30.750Z,7.39
2022-12-24T14:56:33.666Z,7.30
2022-12-24T14:59:57.001Z,7.23
2022-12-24T15:03:00.162Z,7.17
2022-12-24T15:06:07.021Z,7.12
2022-12-24T15:09:27.286Z,7.06
2022-12-24T15:12:32.339Z,7.03
2022-12-24T15:15:36.599Z,7.00
2022-12-24T15:18:49.112Z,6.98
2022-12-24T15:21:52.928Z,6.95
2022-12-24T15:24:56.228Z,6.92
2022-12-24T15:27:59.644Z,6.92
2022-12-24T15:31:13.097Z,6.97
2022-12-24T15:34:35.177Z,7.01
2022-12-24T15:37:42.651Z,7.03
2022-12-24T15:40:48.991Z,7.03
2022-12-24T15:43:54.657Z,7.05
2022-12-24T15:47:00.026Z,7.03
2022-12-24T15:50:03.598Z,7.00
2022-12-24T15:53:20.377Z,6.90
2022-12-24T15:56:31.625Z,6.75
2022-12-24T15:59:38.753Z,6.58
2022-12-24T16:02:45.865Z,6.45
2022-12-24T16:06:09.720Z,6.36
2022-12-24T16:09:31.095Z,6.29
2022-12-24T16:12:35.119Z,6.23
2022-12-24T16:15:48.909Z,6.16
2022-12-24T16:18:51.713Z,6.05
2022-12-24T16:21:57.905Z,5.93
2022-12-24T16:25:23.077Z,5.84
2022-12-24T16:28:26.487Z,5.79
2022-12-24T16:31:54.566Z,5.77
2022-12-24T16:34:57.627Z,5.78
2022-12-24T16:38:00.548Z,5.80
2022-12-24T16:41:03.431Z,5.84
2022-12-24T16:44:06.386Z,5.89
2022-12-24T16:47:16.091Z,5.91
2022-12-24T16:50:19.315Z,5.90
2022-12-24T16:53:22.869Z,5.91
2022-12-24T16:56:25.642Z,5.97
2022-12-24T16:59:28.673Z,6.01
2022-12-24T17:02:31.672Z,6.04
2022-12-24T17:05:38.720Z,6.05
2022-12-24T17:08:41.661Z,6.07
2022-12-24T17:11:44.474Z,6.08
2022-12-24T17:14:47.365Z,6.07
2022-12-24T17:17:50.239Z,6.06
2022-12-24T17:21:01.556Z,6.06
2022-12-24T17:24:04.765Z,6.02
2022-12-24T17:27:07.692Z,5.97
2022-12-24T17:30:11.944Z,5.94
2022-12-24T17:33:15.234Z,5.88
2022-12-24T17:36:19.626Z,5.80
2022-12-24T17:39:27.721Z,5.68
2022-12-24T17:42:31.166Z,5.54
2022-12-24T17:45:34.181Z,5.46
2022-12-24T17:48:37.475Z,5.37
2022-12-24T17:51:45.273Z,5.33
2022-12-24T17:54:49.025Z,5.31
2022-12-24T17:57:51.919Z,5.27
2022-12-24T18:00:55.775Z,5.24
2022-12-24T18:04:01.224Z,5.17
2022-12-24T18:07:04.242Z,5.12
2022-12-24T18:10:08.025Z,5.06
2022-12-24T18:13:17.330Z,4.99
2022-12-24T18:16:25.878Z,4.91
2022-12-24T18:19:28.905Z,4.84
2022-12-24T18:22:31.894Z,4.77
2022-12-24T18:25:34.728Z,4.70
2022-12-24T18:28:38.463Z,4.62
2022-12-24T18:31:41.750Z,4.52
2022-12-24T18:34:44.688Z,4.45
2022-12-24T18:37:47.697Z,4.42
2022-12-24T18:40:50.609Z,4.40
2022-12-24T18:43:54.253Z,4.38
2022-12-24T18:46:57.114Z,4.38
2022-12-24T18:50:00.055Z,4.42
2022-12-24T18:53:04.268Z,4.48
2022-12-24T18:56:15.913Z,4.56
2022-12-24T18:59:24.036Z,4.65
2022-12-24T19:03:26.730Z,4.78
2022-12-24T19:06:30.581Z,4.84
2022-12-24T19:09:33.425Z,4.90
2022-12-24T19:12:36.232Z,4.96
2022-12-24T19:15:45.410Z,5.00
2022-12-24T19:18:48.372Z,5.02
2022-12-24T19:21:51.988Z,5.07
2022-12-24T19:24:54.867Z,5.10
2022-12-24T19:27:57.633Z,5.13
2022-12-24T19:31:09.325Z,5.17
2022-12-24T19:34:12.224Z,5.26
2022-12-24T19:37:15.221Z,5.32
2022-12-24T19:40:18.139Z,5.39
2022-12-24T19:43:20.991Z,5.45
2022-12-24T19:46:29.497Z,5.50
2022-12-24T19:49:32.533Z,5.52
2022-12-24T19:52:35.296Z,5.54
2022-12-24T19:55:38.106Z,5.57
2022-12-24T19:58:40.941Z,5.62
2022-12-24T20:01:44.428Z,5.68
2022-12-24T20:04:47.518Z,5.76
2022-12-24T20:07:50.570Z,5.79
2022-12-24T20:10:53.591Z,5.82
2022-12-24T20:14:01.980Z,5.90
2022-12-24T20:17:04.863Z,5.98
2022-12-24T20:20:08.300Z,6.03
2022-12-24T20:23:11.268Z,6.08
2022-12-24T20:26:17.280Z,6.10
2022-12-24T20:29:20.129Z,6.09
2022-12-24T20:32:22.916Z,6.07
2022-12-24T20:35:25.813Z,6.09
2022-12-24T20:38:28.623Z,6.07
2022-12-24T20:41:32.677Z,6.05
2022-12-24T20:44:35.584Z,6.02
2022-12-24T20:47:39.414Z,6.00
2022-12-24T20:50:42.315Z,6.01
2022-12-24T20:53:46.515Z,6.05
2022-12-24T20:56:57.750Z,6.05
2022-12-24T21:00:02.643Z,6.00
2022-12-24T21:03:05.744Z,5.98
2022-12-24T21:06:09.452Z,5.98
2022-12-24T21:09:12.527Z,5.94
2022-12-24T21:12:34.080Z,5.93
2022-12-24T21:15:42.536Z,5.92
2022-12-24T21:18:45.383Z,5.93
2022-12-24T21:21:48.953Z,5.93
2022-12-24T21:24:52.039Z,5.92
2022-12-24T21:27:55.727Z,5.92
2022-12-24T21:30:58.686Z,5.90
2022-12-24T21:34:03.497Z,5.89
2022-12-24T21:37:08.507Z,5.92
2022-12-24T21:40:12.137Z,5.96
2022-12-24T21:43:14.963Z,5.98
2022-12-24T21:46:23.241Z,6.01
2022-12-24T21:49:44.851Z,6.02
2022-12-24T21:52:49.200Z,6.03
2022-12-24T21:55:52.868Z,6.06
2022-12-24T21:58:55.701Z,6.09
2022-12-24T22:01:59.234Z,6.13
2022-12-24T22:05:02.254Z,6.13
2022-12-24T22:08:23.833Z,6.13
2022-12-24T22:11:50.259Z,6.09
2022-12-24T22:14:56.911Z,6.07
2022-12-24T22:17:59.839Z,6.03
2022-12-24T22:21:02.898Z,6.02
2022-12-24T22:24:06.398Z,6.02
2022-12-24T22:27:09.323Z,6.01
2022-12-24T22:30:12.464Z,5.99
2022-12-24T22:33:15.349Z,5.95
2022-12-24T22:36:18.101Z,5.91
2022-12-24T22:39:21.222Z,5.86
2022-12-24T22:42:24.018Z,5.78
2022-12-24T22:45:27.003Z,5.73
2022-12-24T22:48:29.831Z,5.69
2022-12-24T22:51:32.659Z,5.67
2022-12-24T22:54:36.538Z,5.65
2022-12-24T22:57:39.333Z,5.66
2022-12-24T23:00:44.565Z,5.69
2022-12-24T23:03:47.472Z,5.70
2022-12-24T23:06:50.541Z,5.70
2022-12-24T23:09:53.438Z,5.71
2022-12-24T23:13:15.568Z,5.72
2022-12-24T23:16:18.607Z,5.75
2022-12-24T23:19:21.458Z,5.78
2022-12-24T23:22:24.332Z,5.79
2022-12-24T23:25:27.276Z,5.81
2022-12-24T23:28:30.182Z,5.80
2022-12-24T23:31:35.024Z,5.83
2022-12-24T23:34:38.181Z,5.89
2022-12-24T23:37:41.127Z,5.94
2022-12-24T23:40:43.991Z,5.95
2022-12-24T23:43:47.633Z,5.92
2022-12-24T23:46:50.574Z,5.90
2022-12-24T23:49:53.428Z,5.90
2022-12-24T23:52:56.335Z,5.91
2022-12-24T23:55:59.211Z,5.93
2022-12-24T23:59:02.814Z,5.92
